createdAt,value
2023-04-20T00:00:14.566Z,4.7026
2023-04-20T00:01:22.441Z,4.6502
2023-04-20T00:02:30.791Z,4.6351
2023-04-20T00:03:38.749Z,4.7129
2023-04-20T00:04:46.613Z,4.6971
2023-04-20T00:05:54.763Z,4.6416
2023-04-20T00:07:02.794Z,4.6088
2023-04-20T00:08:10.757Z,4.5794
2023-04-20T00:09:19.190Z,4.6243
2023-04-20T00:10:27.066Z,4.4915
2023-04-20T00:11:35.116Z,4.5001
2023-04-20T00:12:43.284Z,4.4930
2023-04-20T00:13:51.097Z,4.5314
2023-04-20T00:14:59.241Z,4.6481
2023-04-20T00:16:07.244Z,4.5235
2023-04-20T00:17:15.440Z,4.5394
2023-04-20T00:18:23.453Z,4.5134
2023-04-20T00:19:31.580Z,4.6038
2023-04-20T00:20:39.635Z,4.5598
2023-04-20T00:21:47.797Z,4.6773
2023-04-20T00:22:55.905Z,4.5893
2023-04-20T00:24:03.817Z,4.6117
2023-04-20T00:25:11.875Z,4.6862
2023-04-20T00:26:19.905Z,4.6752
2023-04-20T00:27:27.877Z,4.7307
2023-04-20T00:28:36.129Z,4.7324
2023-04-20T00:29:44.004Z,4.7259
2023-04-20T00:30:52.272Z,4.8247
2023-04-20T00:32:00.292Z,4.7692
2023-04-20T00:33:08.272Z,4.7341
2023-04-20T00:34:16.445Z,4.8533
2023-04-20T00:35:24.449Z,4.7055
2023-04-20T00:36:32.522Z,4.6756
2023-04-20T00:37:40.611Z,4.7149
2023-04-20T00:38:48.821Z,4.7864
2023-04-20T00:39:56.785Z,4.7423
2023-04-20T00:41:04.760Z,4.7068
2023-04-20T00:42:12.835Z,4.6347
2023-04-20T00:43:20.920Z,4.5258
2023-04-20T00:44:28.841Z,4.6670
2023-04-20T00:45:37.060Z,4.5790
2023-04-20T00:46:45.520Z,4.4896
2023-04-20T00:47:53.403Z,4.5218
2023-04-20T00:49:01.300Z,4.6241
2023-04-20T00:50:09.353Z,4.4488
2023-04-20T00:51:17.428Z,4.4326
2023-04-20T00:52:25.455Z,4.4619
2023-04-20T00:53:33.514Z,4.4600
2023-04-20T00:54:41.584Z,4.5110
2023-04-20T00:55:49.604Z,4.4579
2023-04-20T00:56:57.890Z,4.5531
2023-04-20T00:58:05.819Z,4.4942
2023-04-20T00:59:13.865Z,4.5703
2023-04-20T01:00:21.907Z,4.4745
2023-04-20T01:01:29.989Z,4.4797
2023-04-20T01:02:38.175Z,4.4577
2023-04-20T01:03:46.322Z,4.5478
2023-04-20T01:04:54.038Z,4.3784
2023-04-20T01:06:02.436Z,4.4591
2023-04-20T01:07:10.323Z,4.6471
2023-04-20T01:08:18.288Z,4.6973
2023-04-20T01:09:26.461Z,4.7498
2023-04-20T01:10:34.511Z,4.8285
2023-04-20T01:11:42.558Z,4.8602
2023-04-20T01:12:50.614Z,4.8299
2023-04-20T01:13:58.742Z,4.7988
2023-04-20T01:15:06.883Z,4.8613
2023-04-20T01:16:14.775Z,4.5592
2023-04-20T01:17:22.999Z,4.5434
2023-04-20T01:18:30.843Z,4.3771
2023-04-20T01:19:38.952Z,4.5584
2023-04-20T01:20:47.110Z,4.6178
2023-04-20T01:21:55.169Z,4.5283
2023-04-20T01:23:03.215Z,4.4646
2023-04-20T01:24:11.172Z,4.5975
2023-04-20T01:25:19.256Z,4.5546
2023-04-20T01:26:27.507Z,4.4986
2023-04-20T01:27:35.431Z,4.5913
2023-04-20T01:28:43.577Z,4.6006
2023-04-20T01:29:51.621Z,4.6124
2023-04-20T01:30:59.576Z,4.7526
2023-04-20T01:32:07.760Z,4.7326
2023-04-20T01:33:15.765Z,4.6508
2023-04-20T01:34:23.915Z,4.6508
2023-04-20T01:35:32.084Z,4.6414
2023-04-20T01:36:40.054Z,4.6305
2023-04-20T01:37:48.052Z,4.5546
2023-04-20T01:38:56.194Z,4.5024
2023-04-20T01:40:04.232Z,4.6140
2023-04-20T01:41:12.303Z,4.6365
2023-04-20T01:42:20.292Z,4.4410
2023-04-20T01:43:28.525Z,4.5373
2023-04-20T01:44:36.470Z,4.6840
2023-04-20T01:45:44.416Z,4.6988
2023-04-20T01:46:52.761Z,4.5731
2023-04-20T01:48:00.780Z,4.5798
2023-04-20T01:49:08.738Z,4.5726
2023-04-20T01:50:16.780Z,4.6595
2023-04-20T01:51:24.701Z,4.5689
2023-04-20T01:52:32.981Z,4.2970
2023-04-20T01:53:40.945Z,4.3692
2023-04-20T01:54:49.021Z,4.5228
2023-04-20T01:55:57.289Z,4.4745
2023-04-20T01:57:05.160Z,4.6443
2023-04-20T01:58:13.277Z,4.7410
2023-04-20T01:59:21.165Z,4.8835
2023-04-20T02:00:29.349Z,4.9743
2023-04-20T02:01:37.300Z,5.0357
2023-04-20T02:02:45.474Z,4.9214
2023-04-20T02:03:53.664Z,5.0298
2023-04-20T02:05:01.670Z,4.9510
2023-04-20T02:06:09.715Z,4.7742
2023-04-20T02:07:17.748Z,4.7576
2023-04-20T02:08:25.802Z,4.7580
2023-04-20T02:09:33.914Z,4.8112
2023-04-20T02:10:41.805Z,4.8400
2023-04-20T02:11:50.005Z,4.8396
2023-04-20T02:12:57.943Z,4.8590
2023-04-20T02:14:06.226Z,4.7719
2023-04-20T02:15:14.286Z,4.9435
2023-04-20T02:16:22.238Z,4.7942
2023-04-20T02:17:30.344Z,4.6872
2023-04-20T02:18:38.374Z,4.5081
2023-04-20T02:19:46.404Z,4.6511
2023-04-20T02:20:54.572Z,4.7887
2023-04-20T02:22:02.698Z,4.9361
2023-04-20T02:23:10.642Z,4.9796
2023-04-20T02:24:18.821Z,4.8575
2023-04-20T02:25:27.001Z,4.8070
2023-04-20T02:26:34.870Z,4.8436
2023-04-20T02:27:42.922Z,4.8545
2023-04-20T02:28:50.942Z,4.8215
2023-04-20T02:29:58.979Z,4.7152
2023-04-20T02:31:07.100Z,4.7355
2023-04-20T02:32:15.184Z,4.7898
2023-04-20T02:33:23.204Z,4.7644
2023-04-20T02:34:31.260Z,4.7885
2023-04-20T02:35:39.302Z,4.8064
2023-04-20T02:36:47.306Z,4.9577
2023-04-20T02:37:55.438Z,4.9451
2023-04-20T02:39:03.368Z,4.9125
2023-04-20T02:40:11.552Z,4.7952
2023-04-20T02:41:19.635Z,4.7522
2023-04-20T02:42:27.705Z,4.8590
2023-04-20T02:43:35.744Z,4.7242
2023-04-20T02:44:43.835Z,4.7282
2023-04-20T02:45:51.922Z,4.6260
2023-04-20T02:47:00.037Z,4.5523
2023-04-20T02:48:08.142Z,4.7215
2023-04-20T02:49:16.588Z,4.7982
2023-04-20T02:50:24.100Z,4.7637
2023-04-20T02:51:32.305Z,4.7440
2023-04-20T02:52:40.391Z,4.7252
2023-04-20T02:53:48.578Z,4.6965
2023-04-20T02:54:56.484Z,4.6552
2023-04-20T02:56:04.559Z,4.6119
2023-04-20T02:57:12.638Z,4.7076
2023-04-20T02:58:20.684Z,4.7686
2023-04-20T02:59:28.780Z,4.7471
2023-04-20T03:00:36.801Z,4.7658
2023-04-20T03:01:45.000Z,4.7736
2023-04-20T03:02:53.185Z,4.7154
2023-04-20T03:04:01.245Z,4.9018
2023-04-20T03:05:09.074Z,4.9781
2023-04-20T03:06:17.137Z,4.9393
2023-04-20T03:07:25.057Z,4.8167
2023-04-20T03:08:33.227Z,4.9018
2023-04-20T03:09:41.302Z,4.7271
2023-04-20T03:10:49.334Z,4.6941
2023-04-20T03:11:57.647Z,4.6639
2023-04-20T03:13:05.476Z,4.6435
2023-04-20T03:14:13.580Z,4.7013
2023-04-20T03:15:21.661Z,4.8064
2023-04-20T03:16:29.660Z,4.9010
2023-04-20T03:17:37.829Z,4.8161
2023-04-20T03:18:45.669Z,4.9456
2023-04-20T03:19:53.871Z,4.8873
2023-04-20T03:21:02.061Z,4.7541
2023-04-20T03:22:09.988Z,4.7196
2023-04-20T03:23:18.098Z,4.7620
2023-04-20T03:24:26.132Z,4.9094
2023-04-20T03:25:34.197Z,4.9832
2023-04-20T03:26:42.330Z,5.0914
2023-04-20T03:27:50.319Z,5.1154
2023-04-20T03:28:58.438Z,5.0713
2023-04-20T03:30:06.583Z,5.0727
2023-04-20T03:31:14.389Z,5.0849
2023-04-20T03:32:22.708Z,5.0711
2023-04-20T03:33:30.604Z,5.0820
2023-04-20T03:34:38.748Z,5.0050
2023-04-20T03:35:46.750Z,4.8968
2023-04-20T03:36:54.833Z,4.8360
2023-04-20T03:38:02.940Z,4.8812
2023-04-20T03:39:10.928Z,4.7202
2023-04-20T03:40:19.078Z,4.8276
2023-04-20T03:41:27.120Z,4.8930
2023-04-20T03:42:35.138Z,4.9479
2023-04-20T03:43:43.234Z,4.8400
2023-04-20T03:44:51.301Z,4.7906
2023-04-20T03:45:59.383Z,4.9084
2023-04-20T03:47:07.499Z,4.9182
2023-04-20T03:48:15.481Z,4.8562
2023-04-20T03:49:23.592Z,4.8552
2023-04-20T03:50:31.496Z,4.9090
2023-04-20T03:51:39.746Z,4.9500
2023-04-20T03:52:47.733Z,4.9521
2023-04-20T03:53:55.624Z,5.0250
2023-04-20T03:55:03.907Z,5.1535
2023-04-20T03:56:11.785Z,5.0320
2023-04-20T03:57:19.937Z,5.0576
2023-04-20T03:58:28.041Z,5.0902
2023-04-20T03:59:36.076Z,5.1652
2023-04-20T04:00:44.165Z,5.0513
2023-04-20T04:01:52.238Z,5.0269
2023-04-20T04:03:00.412Z,5.1606
2023-04-20T04:04:08.656Z,5.3408
2023-04-20T04:05:16.309Z,5.2287
2023-04-20T04:06:24.436Z,5.0940
2023-04-20T04:07:32.477Z,4.9920
2023-04-20T04:08:40.510Z,4.8913
2023-04-20T04:09:48.559Z,4.9262
2023-04-20T04:10:56.658Z,5.0385
2023-04-20T04:12:04.719Z,5.1463
2023-04-20T04:13:12.780Z,5.0372
2023-04-20T04:14:20.810Z,4.9771
2023-04-20T04:15:29.013Z,4.9434
2023-04-20T04:16:36.904Z,4.9735
2023-04-20T04:17:45.095Z,4.8861
2023-04-20T04:18:53.012Z,4.5956
2023-04-20T04:20:01.150Z,4.5750
2023-04-20T04:21:09.175Z,4.6199
2023-04-20T04:22:17.335Z,4.5602
2023-04-20T04:23:25.386Z,4.5817
2023-04-20T04:24:33.472Z,4.6176
2023-04-20T04:25:41.592Z,4.6346
2023-04-20T04:26:49.511Z,4.5958
2023-04-20T04:27:57.567Z,4.6580
2023-04-20T04:29:05.696Z,4.7614
2023-04-20T04:30:13.813Z,4.7593
2023-04-20T04:31:21.841Z,4.8505
2023-04-20T04:32:29.862Z,4.7396
2023-04-20T04:33:37.986Z,4.7837
2023-04-20T04:34:45.993Z,4.7805
2023-04-20T04:35:54.063Z,4.8098
2023-04-20T04:37:02.085Z,4.7803
2023-04-20T04:38:10.148Z,4.8346
2023-04-20T04:39:18.327Z,4.7747
2023-04-20T04:40:26.327Z,4.8228
2023-04-20T04:41:34.416Z,4.9367
2023-04-20T04:42:42.544Z,5.0320
2023-04-20T04:43:50.478Z,4.8888
2023-04-20T04:44:58.660Z,4.5903
2023-04-20T04:46:06.684Z,4.4776
2023-04-20T04:47:14.699Z,4.5100
2023-04-20T04:48:22.729Z,4.4453
2023-04-20T04:49:30.793Z,4.4982
2023-04-20T04:50:38.897Z,4.5588
2023-04-20T04:51:47.078Z,4.7534
2023-04-20T04:52:55.056Z,4.7952
2023-04-20T04:54:02.997Z,4.7768
2023-04-20T04:55:11.142Z,4.8491
2023-04-20T04:56:19.266Z,4.8173
2023-04-20T04:57:27.301Z,4.7808
2023-04-20T04:58:35.299Z,4.7866
2023-04-20T04:59:43.311Z,4.8959
2023-04-20T05:00:51.438Z,4.9311
2023-04-20T05:01:59.688Z,4.8446
2023-04-20T05:03:07.781Z,4.9228
2023-04-20T05:04:15.858Z,4.8425
2023-04-20T05:05:23.661Z,4.6445
2023-04-20T05:06:31.731Z,4.6386
2023-04-20T05:07:39.957Z,4.6555
2023-04-20T05:08:47.867Z,4.7137
2023-04-20T05:09:55.969Z,4.7953
2023-04-20T05:11:04.116Z,4.6246
2023-04-20T05:12:12.069Z,4.3509
2023-04-20T05:13:20.144Z,4.4440
2023-04-20T05:14:28.198Z,4.5577
2023-04-20T05:15:36.357Z,4.5937
2023-04-20T05:16:44.319Z,4.6696
2023-04-20T05:17:52.402Z,4.6771
2023-04-20T05:19:00.532Z,4.5804
2023-04-20T05:20:08.442Z,4.6145
2023-04-20T05:21:16.565Z,4.7049
2023-04-20T05:22:24.657Z,4.7250
2023-04-20T05:23:32.675Z,4.8205
2023-04-20T05:24:40.769Z,4.8068
2023-04-20T05:25:48.911Z,4.7862
2023-04-20T05:26:56.875Z,4.8840
2023-04-20T05:28:04.926Z,4.8165
2023-04-20T05:29:13.085Z,4.7450
2023-04-20T05:30:22.219Z,4.7444
2023-04-20T05:31:29.087Z,4.6759
2023-04-20T05:32:37.223Z,4.6206
2023-04-20T05:33:45.297Z,4.5621
2023-04-20T05:34:53.314Z,4.7160
2023-04-20T05:36:01.415Z,4.7259
2023-04-20T05:37:09.369Z,4.7789
2023-04-20T05:38:17.656Z,4.7032
2023-04-20T05:39:25.555Z,4.5956
2023-04-20T05:40:33.629Z,4.7480
2023-04-20T05:41:41.845Z,4.7395
2023-04-20T05:42:49.700Z,4.5188
2023-04-20T05:43:57.833Z,4.4833
2023-04-20T05:45:05.970Z,4.6525
2023-04-20T05:46:13.953Z,4.6367
2023-04-20T05:47:22.147Z,4.4852
2023-04-20T05:48:30.249Z,4.3868
2023-04-20T05:49:38.129Z,4.4854
2023-04-20T05:50:46.232Z,4.4991
2023-04-20T05:51:54.300Z,4.6119
2023-04-20T05:53:02.480Z,4.7322
2023-04-20T05:54:10.404Z,4.6634
2023-04-20T05:55:19.932Z,4.7583
2023-04-20T05:56:31.406Z,4.6257
2023-04-20T05:57:39.391Z,4.4022
2023-04-20T05:58:47.684Z,4.5230
2023-04-20T05:59:55.619Z,4.6399
2023-04-20T06:01:03.719Z,4.6990
2023-04-20T06:02:11.769Z,4.6906
2023-04-20T06:03:19.886Z,4.7328
2023-04-20T06:04:27.964Z,4.5790
2023-04-20T06:05:35.990Z,4.5487
2023-04-20T06:06:43.973Z,4.4963
2023-04-20T06:07:52.148Z,4.4713
2023-04-20T06:09:00.277Z,4.4709
2023-04-20T06:10:08.253Z,4.5672
2023-04-20T06:11:16.221Z,4.6216
2023-04-20T06:12:26.655Z,4.7299
2023-04-20T06:13:32.348Z,4.7978
2023-04-20T06:14:40.473Z,4.7175
2023-04-20T06:15:48.537Z,4.5737
2023-04-20T06:16:56.540Z,4.4587
2023-04-20T06:18:04.666Z,4.5939
2023-04-20T06:19:12.680Z,4.5266
2023-04-20T06:20:20.910Z,4.5415
2023-04-20T06:21:28.798Z,4.6058
2023-04-20T06:22:36.857Z,4.6948
2023-04-20T06:23:44.904Z,4.6925
2023-04-20T06:24:52.984Z,4.5651
2023-04-20T06:26:01.097Z,4.6744
2023-04-20T06:27:09.141Z,4.7114
2023-04-20T06:28:17.219Z,4.7337
2023-04-20T06:29:25.340Z,4.7267
2023-04-20T06:30:33.329Z,4.6025
2023-04-20T06:31:41.527Z,4.6479
2023-04-20T06:32:49.538Z,4.6462
2023-04-20T06:33:57.556Z,4.6353
2023-04-20T06:35:05.525Z,4.6010
2023-04-20T06:36:13.785Z,4.5537
2023-04-20T06:37:21.756Z,4.5398
2023-04-20T06:38:29.816Z,4.5867
2023-04-20T06:39:37.980Z,4.5869
2023-04-20T06:40:45.837Z,4.4665
2023-04-20T06:41:54.027Z,4.4186
2023-04-20T06:43:02.142Z,4.5506
2023-04-20T06:44:10.155Z,4.6233
2023-04-20T06:45:18.191Z,4.6979
2023-04-20T06:46:26.324Z,4.5953
2023-04-20T06:47:34.373Z,4.5331
2023-04-20T06:48:42.420Z,4.4600
2023-04-20T06:49:50.470Z,4.2716
2023-04-20T06:50:58.636Z,4.2790
2023-04-20T06:52:06.630Z,4.3040
2023-04-20T06:53:14.646Z,4.3885
2023-04-20T06:54:22.835Z,4.5426
2023-04-20T06:55:30.808Z,4.4429
2023-04-20T06:56:38.929Z,4.2386
2023-04-20T06:57:46.978Z,4.2973
2023-04-20T06:58:55.028Z,4.4537
2023-04-20T07:00:03.189Z,4.5733
2023-04-20T07:01:11.162Z,4.4196
2023-04-20T07:02:19.335Z,4.3904
2023-04-20T07:03:27.619Z,4.4139
2023-04-20T07:04:35.382Z,4.2950
2023-04-20T07:05:43.475Z,4.3622
2023-04-20T07:06:53.904Z,4.4791
2023-04-20T07:08:04.528Z,4.3421
2023-04-20T07:09:12.473Z,4.2397
2023-04-20T07:10:20.556Z,4.3280
2023-04-20T07:11:28.833Z,4.3128
2023-04-20T07:12:36.667Z,4.2176
2023-04-20T07:13:44.861Z,4.0355
2023-04-20T07:14:52.807Z,4.1179
2023-04-20T07:16:01.057Z,4.2113
2023-04-20T07:17:09.008Z,4.2260
2023-04-20T07:18:17.018Z,4.3324
2023-04-20T07:19:25.151Z,4.3628
2023-04-20T07:20:33.162Z,4.3980
2023-04-20T07:21:41.200Z,4.4131
2023-04-20T07:22:49.420Z,4.3380
2023-04-20T07:23:57.321Z,4.2878
2023-04-20T07:25:05.426Z,4.1026
2023-04-20T07:26:13.464Z,4.0782
2023-04-20T07:27:21.522Z,4.2826
2023-04-20T07:28:29.626Z,4.3038
2023-04-20T07:29:37.785Z,4.4427
2023-04-20T07:30:45.826Z,4.3074
2023-04-20T07:31:53.978Z,4.3904
2023-04-20T07:33:01.888Z,4.4322
2023-04-20T07:34:09.939Z,4.3109
2023-04-20T07:35:17.974Z,4.3492
2023-04-20T07:36:26.042Z,4.4211
2023-04-20T07:37:34.143Z,4.5047
2023-04-20T07:38:42.131Z,4.4970
2023-04-20T07:39:50.250Z,4.3740
2023-04-20T07:40:58.323Z,4.3546
2023-04-20T07:42:06.520Z,4.4650
2023-04-20T07:43:14.489Z,4.3736
2023-04-20T07:44:22.514Z,4.2048
2023-04-20T07:45:30.652Z,4.1846
2023-04-20T07:46:38.604Z,4.3248
2023-04-20T07:47:46.749Z,4.4024
2023-04-20T07:48:54.754Z,4.4890
2023-04-20T07:50:02.819Z,4.3734
2023-04-20T07:51:11.077Z,4.3942
2023-04-20T07:52:18.940Z,4.3942
2023-04-20T07:53:27.101Z,4.2685
2023-04-20T07:54:35.070Z,4.1463
2023-04-20T07:55:43.202Z,4.2426
2023-04-20T07:56:51.179Z,4.3044
2023-04-20T07:57:59.240Z,4.3633
2023-04-20T07:59:07.309Z,4.3689
2023-04-20T08:00:15.484Z,4.3807
2023-04-20T08:01:23.628Z,4.3902
2023-04-20T08:02:31.637Z,4.4179
2023-04-20T08:03:39.793Z,4.5018
2023-04-20T08:04:47.696Z,4.4364
2023-04-20T08:05:55.828Z,4.4812
2023-04-20T08:07:04.109Z,4.6046
2023-04-20T08:08:11.850Z,4.6099
2023-04-20T08:09:20.013Z,4.5369
2023-04-20T08:10:27.928Z,4.5363
2023-04-20T08:11:36.030Z,4.3494
2023-04-20T08:12:44.234Z,4.2617
2023-04-20T08:13:52.142Z,4.2657
2023-04-20T08:15:00.297Z,4.3259
2023-04-20T08:16:08.212Z,4.4509
2023-04-20T08:17:16.400Z,4.4694
2023-04-20T08:18:24.460Z,4.5173
2023-04-20T08:19:32.606Z,4.5298
2023-04-20T08:20:40.551Z,4.6349
2023-04-20T08:21:48.631Z,4.7702
2023-04-20T08:22:56.695Z,4.7301
2023-04-20T08:24:04.879Z,4.5600
2023-04-20T08:25:12.796Z,4.5159
2023-04-20T08:26:20.856Z,4.4869
2023-04-20T08:27:29.118Z,4.6054
2023-04-20T08:28:37.170Z,4.6689
2023-04-20T08:29:45.086Z,4.7610
2023-04-20T08:30:53.200Z,4.8549
2023-04-20T08:32:01.285Z,4.7047
2023-04-20T08:33:09.320Z,4.6161
2023-04-20T08:34:17.328Z,4.6927
2023-04-20T08:35:25.490Z,4.6531
2023-04-20T08:36:33.466Z,4.7135
2023-04-20T08:37:41.489Z,4.7330
2023-04-20T08:38:49.603Z,4.6920
2023-04-20T08:39:57.624Z,4.9210
2023-04-20T08:41:05.719Z,4.8213
2023-04-20T08:42:13.650Z,5.0219
2023-04-20T08:43:22.190Z,5.0790
2023-04-20T08:44:29.888Z,5.2226
2023-04-20T08:45:37.935Z,5.3645
2023-04-20T08:46:46.054Z,5.5060
2023-04-20T08:47:54.246Z,5.5272
2023-04-20T08:49:02.103Z,5.4143
2023-04-20T08:50:10.274Z,5.2146
2023-04-20T08:51:18.239Z,5.1678
2023-04-20T08:52:26.364Z,5.1841
2023-04-20T08:53:34.297Z,5.1879
2023-04-20T08:54:55.289Z,5.1820
2023-04-20T08:55:55.334Z,5.1135
2023-04-20T08:57:03.341Z,5.2573
2023-04-20T08:58:11.741Z,5.3933
2023-04-20T08:59:19.514Z,5.5138
2023-04-20T09:00:27.591Z,5.6725
2023-04-20T09:01:36.306Z,5.6395
2023-04-20T09:02:43.835Z,5.5835
2023-04-20T09:03:51.919Z,5.6657
2023-04-20T09:04:59.892Z,5.6247
2023-04-20T09:06:07.885Z,5.4162
2023-04-20T09:07:16.126Z,5.4002
2023-04-20T09:08:23.929Z,5.2645
2023-04-20T09:09:32.073Z,5.1999
2023-04-20T09:10:40.176Z,5.4162
2023-04-20T09:11:48.193Z,5.5505
2023-04-20T09:12:56.395Z,5.6685
2023-04-20T09:14:04.233Z,5.7814
2023-04-20T09:15:12.391Z,5.9926
2023-04-20T09:16:20.560Z,5.9703
2023-04-20T09:17:28.618Z,5.9827
2023-04-20T09:18:36.593Z,6.1154
2023-04-20T09:19:44.670Z,6.1217
2023-04-20T09:20:52.697Z,6.0719
2023-04-20T09:22:00.756Z,6.1646
2023-04-20T09:23:08.815Z,5.9960
2023-04-20T09:24:17.233Z,5.9535
2023-04-20T09:25:25.614Z,5.9752
2023-04-20T09:26:33.027Z,6.1604
2023-04-20T09:27:41.184Z,6.2419
2023-04-20T09:28:49.142Z,6.0635
2023-04-20T09:29:57.253Z,6.0529
2023-04-20T09:31:05.302Z,6.0130
2023-04-20T09:32:13.420Z,6.0780
2023-04-20T09:33:21.402Z,6.1494
2023-04-20T09:34:29.561Z,6.1822
2023-04-20T09:35:37.638Z,6.1435
2023-04-20T09:36:45.603Z,6.2388
2023-04-20T09:37:53.627Z,6.3088
2023-04-20T09:39:01.808Z,6.3662
2023-04-20T09:40:09.862Z,6.4713
2023-04-20T09:41:17.878Z,6.4107
2023-04-20T09:42:25.943Z,6.3536
2023-04-20T09:43:33.951Z,6.1166
2023-04-20T09:44:41.998Z,5.9819
2023-04-20T09:45:50.040Z,5.8438
2023-04-20T09:46:58.274Z,5.8146
2023-04-20T09:48:06.275Z,5.8825
2023-04-20T09:49:14.246Z,5.8350
2023-04-20T09:50:28.916Z,5.6834
2023-04-20T09:51:35.222Z,5.7442
2023-04-20T09:52:43.325Z,5.8801
2023-04-20T09:53:53.060Z,5.8289
2023-04-20T09:54:59.486Z,5.8348
2023-04-20T09:56:07.580Z,5.6943
2023-04-20T09:57:15.520Z,5.6887
2023-04-20T09:58:23.825Z,5.6998
2023-04-20T09:59:31.660Z,5.7023
2023-04-20T10:00:39.653Z,5.6224
2023-04-20T10:01:47.916Z,5.6598
2023-04-20T10:02:55.923Z,5.5270
2023-04-20T10:04:04.288Z,5.6458
2023-04-20T10:05:12.019Z,5.4951
2023-04-20T10:06:20.054Z,5.4301
2023-04-20T10:07:28.064Z,5.4150
2023-04-20T10:08:36.224Z,5.3813
2023-04-20T10:09:44.213Z,5.4351
2023-04-20T10:10:52.346Z,5.3799
2023-04-20T10:12:00.237Z,5.4995
2023-04-20T10:13:08.486Z,5.4591
2023-04-20T10:14:16.692Z,5.4473
2023-04-20T10:15:24.558Z,5.3937
2023-04-20T10:16:32.696Z,5.4356
2023-04-20T10:17:40.662Z,5.5068
2023-04-20T10:18:48.766Z,5.4757
2023-04-20T10:19:56.920Z,5.4309
2023-04-20T10:21:04.882Z,5.4225
2023-04-20T10:22:12.998Z,5.5043
2023-04-20T10:23:20.865Z,5.6468
2023-04-20T10:24:28.983Z,5.6048
2023-04-20T10:25:37.043Z,5.6994
2023-04-20T10:26:45.161Z,5.6973
2023-04-20T10:27:53.170Z,5.7378
2023-04-20T10:29:01.147Z,5.7467
2023-04-20T10:30:09.294Z,5.6329
2023-04-20T10:31:17.509Z,5.3550
2023-04-20T10:32:25.490Z,5.2012
2023-04-20T10:33:33.608Z,5.2213
2023-04-20T10:34:41.613Z,5.2939
2023-04-20T10:35:49.617Z,5.3061
2023-04-20T10:36:57.679Z,5.5480
2023-04-20T10:38:05.849Z,5.5524
2023-04-20T10:39:13.787Z,5.5695
2023-04-20T10:40:21.832Z,5.6071
2023-04-20T10:41:29.810Z,5.6531
2023-04-20T10:42:37.956Z,5.7231
2023-04-20T10:43:46.112Z,5.5999
2023-04-20T10:44:54.094Z,5.6306
2023-04-20T10:46:02.155Z,5.5342
2023-04-20T10:47:10.215Z,5.4652
2023-04-20T10:48:18.512Z,5.4820
2023-04-20T10:49:26.471Z,5.5894
2023-04-20T10:50:34.405Z,5.7401
2023-04-20T10:51:42.435Z,5.7204
2023-04-20T10:52:50.701Z,5.6405
2023-04-20T10:53:58.564Z,5.5613
2023-04-20T10:55:06.596Z,5.4351
2023-04-20T10:56:14.727Z,5.4108
2023-04-20T10:57:22.765Z,5.3241
2023-04-20T10:58:30.857Z,5.4290
2023-04-20T10:59:38.872Z,5.7013
2023-04-20T11:00:46.885Z,5.7408
2023-04-20T11:01:55.129Z,5.6504
2023-04-20T11:03:03.128Z,5.5392
2023-04-20T11:04:11.052Z,5.4917
2023-04-20T11:05:19.306Z,5.6197
2023-04-20T11:06:27.360Z,5.5465
2023-04-20T11:07:35.489Z,5.5905
2023-04-20T11:08:43.446Z,5.5095
2023-04-20T11:09:51.539Z,5.4560
2023-04-20T11:10:59.627Z,5.5014
2023-04-20T11:12:07.870Z,5.6584
2023-04-20T11:13:15.737Z,5.6123
2023-04-20T11:14:23.666Z,5.6395
2023-04-20T11:15:31.746Z,5.6447
2023-04-20T11:16:50.817Z,5.7307
2023-04-20T11:17:52.874Z,5.6527
2023-04-20T11:19:00.851Z,5.6718
2023-04-20T11:20:09.041Z,5.6500
2023-04-20T11:21:16.927Z,5.7723
2023-04-20T11:22:25.099Z,5.8087
2023-04-20T11:23:33.152Z,5.8617
2023-04-20T11:24:41.245Z,5.6821
2023-04-20T11:25:49.256Z,5.7013
2023-04-20T11:26:57.354Z,5.7467
2023-04-20T11:28:05.446Z,5.6149
2023-04-20T11:29:13.537Z,5.5880
2023-04-20T11:30:21.432Z,5.5730
2023-04-20T11:31:29.734Z,5.6691
2023-04-20T11:32:37.819Z,5.7570
2023-04-20T11:33:45.788Z,5.7809
2023-04-20T11:35:03.379Z,5.7179
2023-04-20T11:36:06.630Z,5.8341
2023-04-20T11:37:14.820Z,5.8524
2023-04-20T11:38:22.861Z,5.8705
2023-04-20T11:39:30.894Z,5.7490
2023-04-20T11:40:39.066Z,5.7708
2023-04-20T11:41:47.101Z,5.8806
2023-04-20T11:42:54.983Z,5.8648
2023-04-20T11:44:03.112Z,5.8003
2023-04-20T11:45:11.398Z,5.6651
2023-04-20T11:46:19.429Z,5.7500
2023-04-20T11:47:27.477Z,5.6289
2023-04-20T11:48:35.380Z,5.5655
2023-04-20T11:49:43.444Z,5.6279
2023-04-20T11:50:51.453Z,5.5949
2023-04-20T11:51:59.638Z,5.5522
2023-04-20T11:53:07.573Z,5.6098
2023-04-20T11:54:15.778Z,5.6332
2023-04-20T11:55:23.927Z,5.6767
2023-04-20T11:56:31.826Z,5.6514
2023-04-20T11:57:39.935Z,5.6683
2023-04-20T11:58:48.036Z,5.5426
2023-04-20T11:59:56.006Z,5.6342
2023-04-20T12:01:04.100Z,5.6615
2023-04-20T12:02:12.215Z,5.6716
2023-04-20T12:03:20.374Z,5.6010
2023-04-20T12:04:28.584Z,5.4965
2023-04-20T12:05:36.469Z,5.5093
2023-04-20T12:06:44.496Z,5.6191
2023-04-20T12:07:52.555Z,5.7185
2023-04-20T12:09:00.592Z,5.7858
2023-04-20T12:10:08.679Z,5.7254
2023-04-20T12:11:16.641Z,5.6117
2023-04-20T12:12:24.732Z,5.7538
2023-04-20T12:13:32.950Z,5.7574
2023-04-20T12:14:40.865Z,5.7708
2023-04-20T12:15:48.996Z,5.7536
2023-04-20T12:16:58.554Z,5.8446
2023-04-20T12:18:05.088Z,5.8781
2023-04-20T12:19:13.083Z,5.8059
2023-04-20T12:20:21.181Z,5.8915
2023-04-20T12:21:29.355Z,5.8173
2023-04-20T12:22:37.221Z,5.5766
2023-04-20T12:23:45.377Z,5.7038
2023-04-20T12:24:53.495Z,5.7784
2023-04-20T12:26:01.548Z,5.6418
2023-04-20T12:27:09.530Z,5.6399
2023-04-20T12:28:17.690Z,5.8469
2023-04-20T12:29:25.663Z,5.8503
2023-04-20T12:30:33.717Z,5.7944
2023-04-20T12:31:41.860Z,5.7080
2023-04-20T12:32:50.124Z,5.6170
2023-04-20T12:33:57.913Z,5.5220
2023-04-20T12:35:05.985Z,5.6096
2023-04-20T12:36:14.160Z,5.6201
2023-04-20T12:37:22.119Z,5.5667
2023-04-20T12:38:30.175Z,5.5713
2023-04-20T12:39:38.195Z,5.6516
2023-04-20T12:40:46.290Z,5.6207
2023-04-20T12:41:54.498Z,5.6392
2023-04-20T12:43:02.455Z,5.6996
2023-04-20T12:44:11.435Z,5.6044
2023-04-20T12:45:18.532Z,5.5243
2023-04-20T12:46:26.600Z,5.5562
2023-04-20T12:47:34.795Z,5.6651
2023-04-20T12:48:42.735Z,5.6437
2023-04-20T12:49:50.876Z,5.7513
2023-04-20T12:50:58.936Z,5.8121
2023-04-20T12:52:08.145Z,5.8366
2023-04-20T12:53:14.981Z,5.8371
2023-04-20T12:54:22.987Z,5.7923
2023-04-20T12:55:31.089Z,5.7925
2023-04-20T12:56:39.179Z,5.7196
2023-04-20T12:57:47.193Z,5.6939
2023-04-20T12:58:55.372Z,5.8467
2023-04-20T13:00:03.357Z,6.0069
2023-04-20T13:01:11.611Z,6.0427
2023-04-20T13:02:19.630Z,6.0403
2023-04-20T13:03:27.784Z,6.0548
2023-04-20T13:04:35.740Z,6.1522
2023-04-20T13:05:43.548Z,6.1406
2023-04-20T13:06:51.710Z,6.1942
2023-04-20T13:07:59.754Z,6.2400
2023-04-20T13:09:07.878Z,6.1543
2023-04-20T13:10:15.917Z,6.1808
2023-04-20T13:11:25.988Z,6.1305
2023-04-20T13:12:36.887Z,6.2013
2023-04-20T13:13:44.974Z,6.2470
2023-04-20T13:14:53.007Z,6.1154
2023-04-20T13:16:01.178Z,5.9623
2023-04-20T13:17:09.251Z,6.0073
2023-04-20T13:18:17.346Z,5.9663
2023-04-20T13:19:25.283Z,6.0649
2023-04-20T13:20:33.331Z,6.0708
2023-04-20T13:21:41.581Z,6.1013
2023-04-20T13:22:57.779Z,5.9848
2023-04-20T13:24:02.351Z,6.1294
2023-04-20T13:25:10.432Z,6.1929
2023-04-20T13:26:18.567Z,6.2377
2023-04-20T13:27:26.733Z,6.3674
2023-04-20T13:28:34.610Z,6.3760
2023-04-20T13:29:42.800Z,6.3819
2023-04-20T13:30:50.756Z,6.2949
2023-04-20T13:31:58.740Z,6.3651
2023-04-20T13:33:07.028Z,6.2733
2023-04-20T13:34:14.921Z,6.2280
2023-04-20T13:35:22.992Z,6.2236
2023-04-20T13:36:31.067Z,6.1250
2023-04-20T13:37:39.409Z,6.1835
2023-04-20T13:38:47.211Z,6.1229
2023-04-20T13:39:55.217Z,6.1997
2023-04-20T13:41:03.386Z,6.0942
2023-04-20T13:42:11.352Z,6.1137
2023-04-20T13:43:21.462Z,6.0958
2023-04-20T13:44:27.694Z,6.1776
2023-04-20T13:45:35.607Z,6.0845
2023-04-20T13:46:43.603Z,6.0706
2023-04-20T13:47:51.788Z,6.0712
2023-04-20T13:48:59.741Z,6.1446
2023-04-20T13:50:07.998Z,6.0645
2023-04-20T13:51:15.863Z,6.2070
2023-04-20T13:52:23.944Z,6.2762
2023-04-20T13:53:31.973Z,6.4528
2023-04-20T13:54:40.088Z,6.6298
2023-04-20T13:55:48.197Z,6.5717
2023-04-20T13:56:56.181Z,6.6102
2023-04-20T13:58:04.330Z,6.6737
2023-04-20T13:59:12.337Z,6.6632
2023-04-20T14:00:20.330Z,6.5837
2023-04-20T14:01:28.483Z,6.5394
2023-04-20T14:02:36.684Z,6.6224
2023-04-20T14:03:44.713Z,6.7416
2023-04-20T14:04:52.726Z,6.8156
2023-04-20T14:06:00.644Z,6.8206
2023-04-20T14:07:08.781Z,6.8913
2023-04-20T14:08:16.792Z,6.9203
2023-04-20T14:09:24.835Z,6.9556